sensor_id;sensor_type;location;lat;lon;timestamp;pressure;altitude;pressure_sealevel;temperature;humidity
12775;BME280;6451;42.630;23.382;2023-01-29T00:01:42;94483.34;;;0.03;100.00
12775;BME280;6451;42.630;23.382;2023-01-29T00:04:12;94472.66;;;0.08;100.00
12775;BME280;6451;42.630;23.382;2023-01-29T00:06:38;94449.56;;;-0.07;100.00
12775;BME280;6451;42.630;23.382;2023-01-29T00:09:06;94454.63;;;-0.10;100.00
12775;BME280;6451;42.630;23.382;2023-01-29T00:11:34;94445.00;;;-0.06;100.00
12775;BME280;6451;42.630;23.382;2023-01-29T00:14:01;94475.25;;;0.18;100.00
12775;BME280;6451;42.630;23.382;2023-01-29T00:16:28;94456.06;;;0.16;100.00
12775;BME280;6451;42.630;23.382;2023-01-29T00:18:55;94481.31;;;0.29;100.00
12775;BME280;6451;42.630;23.382;2023-01-29T00:21:23;94486.69;;;0.24;100.00
12775;BME280;6451;42.630;23.382;2023-01-29T00:23:50;94502.38;;;0.31;100.00
12775;BME280;6451;42.630;23.382;2023-01-29T00:26:17;94498.31;;;0.38;100.00
12775;BME280;6451;42.630;23.382;2023-01-29T00:28:43;94504.53;;;0.28;100.00
12775;BME280;6451;42.630;23.382;2023-01-29T00:31:15;94496.81;;;0.27;100.00
12775;BME280;6451;42.630;23.382;2023-01-29T00:33:42;94498.88;;;0.35;100.00
12775;BME280;6451;42.630;23.382;2023-01-29T00:36:11;94506.84;;;0.40;100.00
12775;BME280;6451;42.630;23.382;2023-01-29T00:38:39;94498.47;;;0.18;100.00
12775;BME280;6451;42.630;23.382;2023-01-29T00:41:08;94505.91;;;0.21;100.00
12775;BME280;6451;42.630;23.382;2023-01-29T00:43:52;94497.56;;;0.33;100.00
12775;BME280;6451;42.630;23.382;2023-01-29T00:46:38;94495.53;;;0.19;100.00
12775;BME280;6451;42.630;23.382;2023-01-29T00:49:05;94503.19;;;0.31;100.00
12775;BME280;6451;42.630;23.382;2023-01-29T00:51:33;94493.06;;;0.28;100.00
12775;BME280;6451;42.630;23.382;2023-01-29T00:54:02;94498.28;;;0.04;100.00
12775;BME280;6451;42.630;23.382;2023-01-29T00:56:32;94487.59;;;0.09;100.00
12775;BME280;6451;42.630;23.382;2023-01-29T00:59:00;94499.75;;;0.25;100.00
12775;BME280;6451;42.630;23.382;2023-01-29T01:01:27;94496.03;;;0.21;100.00
12775;BME280;6451;42.630;23.382;2023-01-29T01:04:20;94499.44;;;0.32;100.00
12775;BME280;6451;42.630;23.382;2023-01-29T01:06:46;94490.19;;;0.14;100.00
12775;BME280;6451;42.630;23.382;2023-01-29T01:09:14;94501.41;;;0.16;100.00
12775;BME280;6451;42.630;23.382;2023-01-29T01:11:59;94475.63;;;0.02;100.00
12775;BME280;6451;42.630;23.382;2023-01-29T01:14:26;94505.78;;;0.02;100.00
12775;BME280;6451;42.630;23.382;2023-01-29T01:16:52;94493.19;;;0.08;100.00
12775;BME280;6451;42.630;23.382;2023-01-29T01:19:19;94493.66;;;0.15;100.00
12775;BME280;6451;42.630;23.382;2023-01-29T01:21:46;94490.50;;;0.08;100.00
12775;BME280;6451;42.630;23.382;2023-01-29T01:24:14;94498.50;;;0.08;100.00
12775;BME280;6451;42.630;23.382;2023-01-29T01:26:41;94500.38;;;0.07;100.00
12775;BME280;6451;42.630;23.382;2023-01-29T01:29:08;94499.56;;;0.12;100.00
12775;BME280;6451;42.630;23.382;2023-01-29T01:31:35;94494.16;;;0.22;100.00
12775;BME280;6451;42.630;23.382;2023-01-29T01:34:02;94501.66;;;0.20;100.00
12775;BME280;6451;42.630;23.382;2023-01-29T01:36:29;94500.66;;;0.11;100.00
12775;BME280;6451;42.630;23.382;2023-01-29T01:38:56;94498.50;;;0.13;100.00
12775;BME280;6451;42.630;23.382;2023-01-29T01:41:25;94493.47;;;0.06;100.00
12775;BME280;6451;42.630;23.382;2023-01-29T01:43:53;94481.72;;;0.07;100.00
12775;BME280;6451;42.630;23.382;2023-01-29T01:46:22;94497.69;;;0.12;100.00
12775;BME280;6451;42.630;23.382;2023-01-29T01:48:52;94494.94;;;0.22;100.00
12775;BME280;6451;42.630;23.382;2023-01-29T01:51:23;94498.66;;;0.32;100.00
12775;BME280;6451;42.630;23.382;2023-01-29T01:53:54;94506.28;;;0.04;100.00
12775;BME280;6451;42.630;23.382;2023-01-29T01:56:29;94501.19;;;0.08;100.00
12775;BME280;6451;42.630;23.382;2023-01-29T01:59:05;94512.13;;;0.06;100.00
12775;BME280;6451;42.630;23.382;2023-01-29T02:01:33;94498.88;;;-0.09;100.00
12775;BME280;6451;42.630;23.382;2023-01-29T02:04:02;94512.97;;;0.02;100.00
12775;BME280;6451;42.630;23.382;2023-01-29T02:06:48;94515.59;;;0.07;100.00
12775;BME280;6451;42.630;23.382;2023-01-29T02:09:38;94514.78;;;0.11;100.00
12775;BME280;6451;42.630;23.382;2023-01-29T02:12:09;94486.41;;;-0.19;100.00
12775;BME280;6451;42.630;23.382;2023-01-29T02:14:38;94499.34;;;0.03;100.00
12775;BME280;6451;42.630;23.382;2023-01-29T02:17:06;94505.97;;;0.11;100.00
12775;BME280;6451;42.630;23.382;2023-01-29T02:19:46;94514.19;;;0.19;100.00
12775;BME280;6451;42.630;23.382;2023-01-29T02:22:50;94512.59;;;0.18;100.00
12775;BME280;6451;42.630;23.382;2023-01-29T02:25:46;94523.84;;;0.10;100.00
12775;BME280;6451;42.630;23.382;2023-01-29T02:28:25;94523.94;;;0.00;100.00
12775;BME280;6451;42.630;23.382;2023-01-29T02:31:01;94505.06;;;-0.14;100.00
12775;BME280;6451;42.630;23.382;2023-01-29T02:33:40;94532.72;;;0.01;100.00
12775;BME280;6451;42.630;23.382;2023-01-29T02:36:19;94503.28;;;-0.34;100.00
12775;BME280;6451;42.630;23.382;2023-01-29T02:38:58;94537.56;;;-0.12;100.00
12775;BME280;6451;42.630;23.382;2023-01-29T02:41:30;94527.91;;;-0.03;100.00
12775;BME280;6451;42.630;23.382;2023-01-29T02:44:05;94537.06;;;-0.14;100.00
12775;BME280;6451;42.630;23.382;2023-01-29T02:46:38;94539.72;;;-0.14;100.00
12775;BME280;6451;42.630;23.382;2023-01-29T02:49:16;94552.22;;;-0.09;100.00
12775;BME280;6451;42.630;23.382;2023-01-29T02:51:53;94539.75;;;-0.19;100.00
12775;BME280;6451;42.630;23.382;2023-01-29T02:54:29;94525.59;;;-0.19;100.00
12775;BME280;6451;42.630;23.382;2023-01-29T02:57:00;94538.94;;;-0.19;100.00
12775;BME280;6451;42.630;23.382;2023-01-29T02:59:35;94542.09;;;-0.07;100.00
12775;BME280;6451;42.630;23.382;2023-01-29T03:02:08;94546.94;;;-0.14;100.00
12775;BME280;6451;42.630;23.382;2023-01-29T03:04:40;94555.50;;;-0.22;100.00
12775;BME280;6451;42.630;23.382;2023-01-29T03:07:15;94539.81;;;-0.34;100.00
12775;BME280;6451;42.630;23.382;2023-01-29T03:09:49;94559.25;;;-0.29;100.00
12775;BME280;6451;42.630;23.382;2023-01-29T03:12:22;94524.03;;;-0.25;100.00
12775;BME280;6451;42.630;23.382;2023-01-29T03:15:00;94488.25;;;-0.69;100.00
12775;BME280;6451;42.630;23.382;2023-01-29T03:17:42;94524.13;;;-0.46;100.00
12775;BME280;6451;42.630;23.382;2023-01-29T03:20:13;94486.31;;;-0.58;100.00
12775;BME280;6451;42.630;23.382;2023-01-29T03:22:43;94483.16;;;-0.65;100.00
12775;BME280;6451;42.630;23.382;2023-01-29T03:25:14;94557.56;;;-0.09;100.00
12775;BME280;6451;42.630;23.382;2023-01-29T03:28:01;94556.22;;;-0.07;100.00
12775;BME280;6451;42.630;23.382;2023-01-29T03:30:52;94531.53;;;-0.33;100.00
12775;BME280;6451;42.630;23.382;2023-01-29T03:33:41;94338.88;;;-1.52;100.00
12775;BME280;6451;42.630;23.382;2023-01-29T03:36:13;94553.28;;;0.00;100.00
12775;BME280;6451;42.630;23.382;2023-01-29T03:38:43;94550.59;;;0.00;100.00
12775;BME280;6451;42.630;23.382;2023-01-29T03:41:16;94535.84;;;0.13;100.00
12775;BME280;6451;42.630;23.382;2023-01-29T03:43:52;94538.22;;;0.14;100.00
12775;BME280;6451;42.630;23.382;2023-01-29T03:46:25;94541.66;;;0.20;100.00
12775;BME280;6451;42.630;23.382;2023-01-29T03:48:59;94530.53;;;0.08;100.00
12775;BME280;6451;42.630;23.382;2023-01-29T03:51:33;94535.06;;;0.07;100.00
12775;BME280;6451;42.630;23.382;2023-01-29T03:54:06;94540.88;;;0.19;100.00
12775;BME280;6451;42.630;23.382;2023-01-29T03:56:42;94517.31;;;-0.08;100.00
12775;BME280;6451;42.630;23.382;2023-01-29T03:59:18;94506.06;;;-0.05;100.00
12775;BME280;6451;42.630;23.382;2023-01-29T04:01:50;94522.06;;;0.01;100.00
12775;BME280;6451;42.630;23.382;2023-01-29T04:04:23;94551.63;;;0.09;100.00
12775;BME280;6451;42.630;23.382;2023-01-29T04:06:51;94554.56;;;0.03;100.00
12775;BME280;6451;42.630;23.382;2023-01-29T04:09:26;94539.66;;;-0.04;100.00
12775;BME280;6451;42.630;23.382;2023-01-29T04:12:01;94542.56;;;0.05;100.00
12775;BME280;6451;42.630;23.382;2023-01-29T04:14:30;94552.19;;;0.01;100.00
12775;BME280;6451;42.630;23.382;2023-01-29T04:17:01;94548.25;;;-0.17;100.00
12775;BME280;6451;42.630;23.382;2023-01-29T04:19:29;94544.22;;;-0.09;100.00
12775;BME280;6451;42.630;23.382;2023-01-29T04:22:02;94552.22;;;-0.04;100.00
12775;BME280;6451;42.630;23.382;2023-01-29T04:24:32;94546.16;;;-0.20;100.00
12775;BME280;6451;42.630;23.382;2023-01-29T04:27:06;94554.63;;;-0.08;100.00
12775;BME280;6451;42.630;23.382;2023-01-29T04:29:47;94562.03;;;0.06;100.00
12775;BME280;6451;42.630;23.382;2023-01-29T04:32:24;94554.06;;;0.01;100.00
12775;BME280;6451;42.630;23.382;2023-01-29T04:35:00;94564.75;;;-0.05;100.00
12775;BME280;6451;42.630;23.382;2023-01-29T04:37:35;94556.53;;;-0.23;100.00
12775;BME280;6451;42.630;23.382;2023-01-29T04:40:15;94568.28;;;-0.19;100.00
12775;BME280;6451;42.630;23.382;2023-01-29T04:42:48;94573.03;;;-0.06;100.00
12775;BME280;6451;42.630;23.382;2023-01-29T04:45:26;94567.69;;;-0.06;100.00
12775;BME280;6451;42.630;23.382;2023-01-29T04:48:04;94562.38;;;-0.16;100.00
12775;BME280;6451;42.630;23.382;2023-01-29T04:50:37;94571.69;;;-0.09;100.00
12775;BME280;6451;42.630;23.382;2023-01-29T04:53:09;94566.34;;;-0.09;100.00
12775;BME280;6451;42.630;23.382;2023-01-29T04:55:41;94564.81;;;-0.15;100.00
12775;BME280;6451;42.630;23.382;2023-01-29T04:58:11;94557.84;;;-0.16;100.00
12775;BME280;6451;42.630;23.382;2023-01-29T05:00:43;94573.38;;;-0.23;100.00
12775;BME280;6451;42.630;23.382;2023-01-29T05:03:13;94576.28;;;-0.19;100.00
12775;BME280;6451;42.630;23.382;2023-01-29T05:05:44;94561.09;;;-0.24;100.00
12775;BME280;6451;42.630;23.382;2023-01-29T05:08:15;94541.91;;;-0.31;100.00
12775;BME280;6451;42.630;23.382;2023-01-29T05:10:43;94564.00;;;-0.20;100.00
12775;BME280;6451;42.630;23.382;2023-01-29T05:13:13;94574.91;;;-0.12;100.00
12775;BME280;6451;42.630;23.382;2023-01-29T05:15:46;94575.41;;;0.01;100.00
12775;BME280;6451;42.630;23.382;2023-01-29T05:18:16;94588.53;;;-0.13;100.00
12775;BME280;6451;42.630;23.382;2023-01-29T05:20:43;94542.16;;;-0.22;100.00
12775;BME280;6451;42.630;23.382;2023-01-29T05:23:14;94578.59;;;0.03;100.00
12775;BME280;6451;42.630;23.382;2023-01-29T05:25:41;94545.63;;;-0.22;100.00
12775;BME280;6451;42.630;23.382;2023-01-29T05:28:09;94575.97;;;-0.08;100.00
12775;BME280;6451;42.630;23.382;2023-01-29T05:30:41;94590.63;;;0.00;100.00
12775;BME280;6451;42.630;23.382;2023-01-29T05:33:12;94585.50;;;0.09;100.00
12775;BME280;6451;42.630;23.382;2023-01-29T05:35:40;94562.16;;;-0.20;100.00
12775;BME280;6451;42.630;23.382;2023-01-29T05:38:07;94599.38;;;0.06;100.00
12775;BME280;6451;42.630;23.382;2023-01-29T05:40:35;94602.88;;;-0.04;100.00
12775;BME280;6451;42.630;23.382;2023-01-29T05:43:02;94588.75;;;-0.10;100.00
12775;BME280;6451;42.630;23.382;2023-01-29T05:45:29;94581.59;;;-0.19;100.00
12775;BME280;6451;42.630;23.382;2023-01-29T05:47:57;94599.41;;;-0.05;100.00
12775;BME280;6451;42.630;23.382;2023-01-29T05:50:25;94562.94;;;-0.24;100.00
12775;BME280;6451;42.630;23.382;2023-01-29T05:52:56;94593.53;;;-0.02;100.00
12775;BME280;6451;42.630;23.382;2023-01-29T05:55:23;94605.28;;;-0.03;100.00
12775;BME280;6451;42.630;23.382;2023-01-29T05:57:51;94605.53;;;0.01;100.00
12775;BME280;6451;42.630;23.382;2023-01-29T06:00:19;94602.56;;;0.08;100.00
12775;BME280;6451;42.630;23.382;2023-01-29T06:02:47;94614.88;;;-0.02;100.00
12775;BME280;6451;42.630;23.382;2023-01-29T06:05:14;94600.00;;;-0.18;100.00
12775;BME280;6451;42.630;23.382;2023-01-29T06:07:41;94610.59;;;-0.03;100.00
12775;BME280;6451;42.630;23.382;2023-01-29T06:10:14;94620.19;;;0.04;100.00
12775;BME280;6451;42.630;23.382;2023-01-29T06:12:41;94622.34;;;-0.09;100.00
12775;BME280;6451;42.630;23.382;2023-01-29T06:15:10;94631.94;;;0.03;100.00
12775;BME280;6451;42.630;23.382;2023-01-29T06:17:40;94638.06;;;0.08;100.00
12775;BME280;6451;42.630;23.382;2023-01-29T06:20:08;94634.09;;;0.01;100.00
12775;BME280;6451;42.630;23.382;2023-01-29T06:22:35;94602.94;;;-0.14;100.00
12775;BME280;6451;42.630;23.382;2023-01-29T06:25:03;94631.44;;;-0.05;100.00
12775;BME280;6451;42.630;23.382;2023-01-29T06:27:32;94650.09;;;-0.10;100.00
12775;BME280;6451;42.630;23.382;2023-01-29T06:29:58;94655.44;;;-0.05;100.00
12775;BME280;6451;42.630;23.382;2023-01-29T06:32:26;94632.00;;;-0.18;100.00
12775;BME280;6451;42.630;23.382;2023-01-29T06:34:53;94654.59;;;0.05;100.00
12775;BME280;6451;42.630;23.382;2023-01-29T06:37:20;94654.06;;;0.08;100.00
12775;BME280;6451;42.630;23.382;2023-01-29T06:39:46;94617.00;;;-0.04;100.00
12775;BME280;6451;42.630;23.382;2023-01-29T06:42:13;94660.38;;;0.22;100.00
12775;BME280;6451;42.630;23.382;2023-01-29T06:44:42;94664.41;;;0.15;100.00
12775;BME280;6451;42.630;23.382;2023-01-29T06:47:08;94664.94;;;0.22;100.00
12775;BME280;6451;42.630;23.382;2023-01-29T06:49:35;94662.81;;;0.14;100.00
12775;BME280;6451;42.630;23.382;2023-01-29T06:52:02;94668.97;;;0.14;100.00
12775;BME280;6451;42.630;23.382;2023-01-29T06:54:29;94671.34;;;0.21;100.00
12775;BME280;6451;42.630;23.382;2023-01-29T06:56:56;94676.44;;;0.17;100.00
12775;BME280;6451;42.630;23.382;2023-01-29T06:59:23;94667.09;;;0.15;100.00
12775;BME280;6451;42.630;23.382;2023-01-29T07:01:51;94672.13;;;0.32;100.00
12775;BME280;6451;42.630;23.382;2023-01-29T07:04:18;94681.44;;;0.29;100.00
12775;BME280;6451;42.630;23.382;2023-01-29T07:06:44;94675.09;;;0.15;100.00
12775;BME280;6451;42.630;23.382;2023-01-29T07:09:12;94664.75;;;0.08;100.00
12775;BME280;6451;42.630;23.382;2023-01-29T07:11:39;94666.81;;;0.21;100.00
12775;BME280;6451;42.630;23.382;2023-01-29T07:14:07;94603.78;;;-0.34;100.00
12775;BME280;6451;42.630;23.382;2023-01-29T07:16:34;94690.25;;;0.30;100.00
12775;BME280;6451;42.630;23.382;2023-01-29T07:19:02;94687.91;;;0.18;100.00
12775;BME280;6451;42.630;23.382;2023-01-29T07:21:29;94688.69;;;0.23;100.00
12775;BME280;6451;42.630;23.382;2023-01-29T07:23:56;94672.97;;;0.17;100.00
12775;BME280;6451;42.630;23.382;2023-01-29T07:26:24;94639.59;;;0.19;100.00
12775;BME280;6451;42.630;23.382;2023-01-29T07:28:50;94693.41;;;0.42;100.00
12775;BME280;6451;42.630;23.382;2023-01-29T07:31:17;94641.00;;;0.02;100.00
12775;BME280;6451;42.630;23.382;2023-01-29T07:33:44;94700.06;;;0.49;100.00
12775;BME280;6451;42.630;23.382;2023-01-29T07:36:13;94684.34;;;0.43;100.00
12775;BME280;6451;42.630;23.382;2023-01-29T07:38:40;94697.72;;;0.33;100.00
12775;BME280;6451;42.630;23.382;2023-01-29T07:41:08;94698.25;;;0.35;100.00
12775;BME280;6451;42.630;23.382;2023-01-29T07:43:35;94692.06;;;0.44;100.00
12775;BME280;6451;42.630;23.382;2023-01-29T07:46:03;94704.88;;;0.47;100.00
12775;BME280;6451;42.630;23.382;2023-01-29T07:48:30;94698.19;;;0.45;100.00
12775;BME280;6451;42.630;23.382;2023-01-29T07:50:57;94701.63;;;0.55;100.00
12775;BME280;6451;42.630;23.382;2023-01-29T07:53:26;94679.28;;;0.36;100.00
12775;BME280;6451;42.630;23.382;2023-01-29T07:55:53;94688.88;;;0.47;100.00
12775;BME280;6451;42.630;23.382;2023-01-29T07:58:20;94712.25;;;0.66;100.00
12775;BME280;6451;42.630;23.382;2023-01-29T08:00:47;94655.84;;;0.28;100.00
12775;BME280;6451;42.630;23.382;2023-01-29T08:03:16;94716.00;;;0.70;100.00
12775;BME280;6451;42.630;23.382;2023-01-29T08:05:45;94712.25;;;0.66;100.00
12775;BME280;6451;42.630;23.382;2023-01-29T08:08:12;94722.19;;;0.55;100.00
12775;BME280;6451;42.630;23.382;2023-01-29T08:10:41;94715.00;;;0.55;100.00
12775;BME280;6451;42.630;23.382;2023-01-29T08:13:08;94692.06;;;0.44;100.00
12775;BME280;6451;42.630;23.382;2023-01-29T08:15:35;94718.69;;;0.60;100.00
12775;BME280;6451;42.630;23.382;2023-01-29T08:18:03;94711.75;;;0.59;100.00
12775;BME280;6451;42.630;23.382;2023-01-29T08:20:30;94713.66;;;0.53;100.00
12775;BME280;6451;42.630;23.382;2023-01-29T08:23:00;94712.34;;;0.45;100.00
12775;BME280;6451;42.630;23.382;2023-01-29T08:25:29;94725.38;;;0.57;100.00
12775;BME280;6451;42.630;23.382;2023-01-29T08:27:59;94728.63;;;0.54;100.00
12775;BME280;6451;42.630;23.382;2023-01-29T08:30:28;94694.78;;;0.34;100.00
12775;BME280;6451;42.630;23.382;2023-01-29T08:32:55;94726.41;;;0.66;100.00
12775;BME280;6451;42.630;23.382;2023-01-29T08:35:22;94725.84;;;0.74;100.00
12775;BME280;6451;42.630;23.382;2023-01-29T08:37:53;94727.50;;;0.65;100.00
12775;BME280;6451;42.630;23.382;2023-01-29T08:40:20;94729.66;;;0.58;100.00
12775;BME280;6451;42.630;23.382;2023-01-29T08:42:47;94724.28;;;0.63;100.00
12775;BME280;6451;42.630;23.382;2023-01-29T08:45:16;94733.63;;;0.71;100.00
12775;BME280;6451;42.630;23.382;2023-01-29T08:47:46;94701.66;;;0.50;100.00
12775;BME280;6451;42.630;23.382;2023-01-29T08:50:13;94727.69;;;0.79;100.00
12775;BME280;6451;42.630;23.382;2023-01-29T08:52:40;94732.25;;;0.73;100.00
12775;BME280;6451;42.630;23.382;2023-01-29T08:55:07;94718.88;;;0.78;100.00
12775;BME280;6451;42.630;23.382;2023-01-29T08:57:35;94742.63;;;0.85;100.00
12775;BME280;6451;42.630;23.382;2023-01-29T09:00:03;94734.13;;;0.68;100.00
12775;BME280;6451;42.630;23.382;2023-01-29T09:02:32;94749.00;;;0.89;100.00
12775;BME280;6451;42.630;23.382;2023-01-29T09:04:58;94749.50;;;0.96;100.00
12775;BME280;6451;42.630;23.382;2023-01-29T09:07:25;94748.47;;;0.92;100.00
12775;BME280;6451;42.630;23.382;2023-01-29T09:09:52;94745.75;;;0.97;100.00
12775;BME280;6451;42.630;23.382;2023-01-29T09:12:19;94747.31;;;1.03;100.00
12775;BME280;6451;42.630;23.382;2023-01-29T09:14:46;94755.81;;;1.16;100.00
12775;BME280;6451;42.630;23.382;2023-01-29T09:17:13;94676.47;;;0.67;100.00
12775;BME280;6451;42.630;23.382;2023-01-29T09:19:41;94743.56;;;1.04;100.00
12775;BME280;6451;42.630;23.382;2023-01-29T09:22:08;94755.47;;;0.78;100.00
12775;BME280;6451;42.630;23.382;2023-01-29T09:24:36;94709.38;;;0.52;100.00
12775;BME280;6451;42.630;23.382;2023-01-29T09:27:03;94750.59;;;0.90;100.00
12775;BME280;6451;42.630;23.382;2023-01-29T09:29:30;94734.53;;;1.00;100.00
12775;BME280;6451;42.630;23.382;2023-01-29T09:31:57;94735.06;;;0.97;100.00
12775;BME280;6451;42.630;23.382;2023-01-29T09:34:24;94747.84;;;1.05;100.00
12775;BME280;6451;42.630;23.382;2023-01-29T09:36:52;94739.59;;;1.02;100.00
12775;BME280;6451;42.630;23.382;2023-01-29T09:39:20;94714.28;;;0.89;100.00
12775;BME280;6451;42.630;23.382;2023-01-29T09:41:53;94736.88;;;1.07;100.00
12775;BME280;6451;42.630;23.382;2023-01-29T09:44:27;94744.16;;;0.96;100.00
12775;BME280;6451;42.630;23.382;2023-01-29T09:47:01;94732.06;;;1.09;100.00
12775;BME280;6451;42.630;23.382;2023-01-29T09:49:34;94727.63;;;0.94;100.00
12775;BME280;6451;42.630;23.382;2023-01-29T09:52:12;94732.66;;;0.96;100.00
12775;BME280;6451;42.630;23.382;2023-01-29T09:54:50;94733.78;;;0.90;100.00
12775;BME280;6451;42.630;23.382;2023-01-29T09:57:24;94718.75;;;0.99;100.00
12775;BME280;6451;42.630;23.382;2023-01-29T09:59:53;94729.69;;;1.07;100.00
12775;BME280;6451;42.630;23.382;2023-01-29T10:02:39;94699.34;;;0.83;100.00
12775;BME280;6451;42.630;23.382;2023-01-29T10:05:24;94709.13;;;1.03;100.00
12775;BME280;6451;42.630;23.382;2023-01-29T10:10:59;94716.75;;;1.20;100.00
12775;BME280;6451;42.630;23.382;2023-01-29T10:13:39;94676.25;;;1.02;100.00
12775;BME280;6451;42.630;23.382;2023-01-29T10:16:24;94659.25;;;0.88;100.00
12775;BME280;6451;42.630;23.382;2023-01-29T10:19:08;94700.31;;;1.02;100.00
12775;BME280;6451;42.630;23.382;2023-01-29T10:22:05;94706.44;;;1.08;100.00
12775;BME280;6451;42.630;23.382;2023-01-29T10:24:37;94717.41;;;1.01;100.00
12775;BME280;6451;42.630;23.382;2023-01-29T10:27:13;94701.69;;;0.95;100.00
12775;BME280;6451;42.630;23.382;2023-01-29T10:29:43;94691.53;;;0.97;100.00
12775;BME280;6451;42.630;23.382;2023-01-29T10:32:15;94705.94;;;1.01;100.00
12775;BME280;6451;42.630;23.382;2023-01-29T10:34:47;94613.91;;;0.39;100.00
12775;BME280;6451;42.630;23.382;2023-01-29T10:37:17;94688.63;;;0.93;100.00
12775;BME280;6451;42.630;23.382;2023-01-29T10:39:44;94701.97;;;0.93;100.00
12775;BME280;6451;42.630;23.382;2023-01-29T10:42:23;94698.47;;;0.98;100.00
12775;BME280;6451;42.630;23.382;2023-01-29T10:45:01;94690.31;;;0.74;100.00
12775;BME280;6451;42.630;23.382;2023-01-29T10:47:48;94697.22;;;0.80;100.00
12775;BME280;6451;42.630;23.382;2023-01-29T10:50:29;94619.31;;;0.23;100.00
12775;BME280;6451;42.630;23.382;2023-01-29T10:53:16;94700.09;;;0.94;100.00
12775;BME280;6451;42.630;23.382;2023-01-29T10:55:54;94696.94;;;0.87;100.00
12775;BME280;6451;42.630;23.382;2023-01-29T10:58:31;94676.97;;;0.69;100.00
12775;BME280;6451;42.630;23.382;2023-01-29T11:01:00;94656.56;;;0.44;100.00
12775;BME280;6451;42.630;23.382;2023-01-29T11:03:30;94673.84;;;0.62;100.00
12775;BME280;6451;42.630;23.382;2023-01-29T11:06:03;94691.81;;;0.95;100.00
12775;BME280;6451;42.630;23.382;2023-01-29T11:08:39;94685.25;;;0.77;100.00
12775;BME280;6451;42.630;23.382;2023-01-29T11:11:12;94647.16;;;0.57;100.00
12775;BME280;6451;42.630;23.382;2023-01-29T11:13:43;94678.06;;;0.68;100.00
12775;BME280;6451;42.630;23.382;2023-01-29T11:16:13;94686.03;;;0.78;100.00
12775;BME280;6451;42.630;23.382;2023-01-29T11:18:54;94683.38;;;0.78;100.00
12775;BME280;6451;42.630;23.382;2023-01-29T11:21:22;94676.38;;;0.87;100.00
12775;BME280;6451;42.630;23.382;2023-01-29T11:23:50;94653.22;;;0.72;100.00
12775;BME280;6451;42.630;23.382;2023-01-29T11:26:18;94667.25;;;0.93;100.00
12775;BME280;6451;42.630;23.382;2023-01-29T11:28:50;94602.09;;;0.45;100.00
12775;BME280;6451;42.630;23.382;2023-01-29T11:31:20;94649.06;;;0.95;100.00
12775;BME280;6451;42.630;23.382;2023-01-29T11:33:48;94666.25;;;1.18;100.00
12775;BME280;6451;42.630;23.382;2023-01-29T11:36:20;94656.38;;;1.19;100.00
12775;BME280;6451;42.630;23.382;2023-01-29T11:39:09;94633.44;;;1.13;100.00
12775;BME280;6451;42.630;23.382;2023-01-29T11:41:49;94650.22;;;1.18;100.00
12775;BME280;6451;42.630;23.382;2023-01-29T11:44:26;94627.88;;;1.04;100.00
12775;BME280;6451;42.630;23.382;2023-01-29T11:46:54;94647.25;;;1.20;100.00
12775;BME280;6451;42.630;23.382;2023-01-29T11:49:28;94631.09;;;1.35;100.00
12775;BME280;6451;42.630;23.382;2023-01-29T11:51:57;94627.94;;;1.28;100.00
12775;BME280;6451;42.630;23.382;2023-01-29T11:54:30;94645.78;;;1.37;100.00
12775;BME280;6451;42.630;23.382;2023-01-29T11:56:58;94645.53;;;1.39;100.00
12775;BME280;6451;42.630;23.382;2023-01-29T11:59:33;94636.03;;;1.52;100.00
12775;BME280;6451;42.630;23.382;2023-01-29T12:02:05;94647.19;;;1.59;100.00
12775;BME280;6451;42.630;23.382;2023-01-29T12:04:39;94640.72;;;1.36;100.00
12775;BME280;6451;42.630;23.382;2023-01-29T12:07:10;94640.00;;;1.25;100.00
12775;BME280;6451;42.630;23.382;2023-01-29T12:09:38;94635.47;;;1.26;100.00
12775;BME280;6451;42.630;23.382;2023-01-29T12:12:25;94640.31;;;1.24;100.00
12775;BME280;6451;42.630;23.382;2023-01-29T12:15:04;94634.41;;;1.22;100.00
12775;BME280;6451;42.630;23.382;2023-01-29T12:17:34;94588.69;;;0.94;100.00
12775;BME280;6451;42.630;23.382;2023-01-29T12:20:09;94622.91;;;1.26;100.00
12775;BME280;6451;42.630;23.382;2023-01-29T12:22:40;94584.13;;;1.00;100.00
12775;BME280;6451;42.630;23.382;2023-01-29T12:25:18;94627.63;;;1.34;100.00
12775;BME280;6451;42.630;23.382;2023-01-29T12:27:50;94647.25;;;1.25;100.00
12775;BME280;6451;42.630;23.382;2023-01-29T12:30:24;94562.97;;;0.69;100.00
12775;BME280;6451;42.630;23.382;2023-01-29T12:32:59;94629.06;;;1.22;100.00
12775;BME280;6451;42.630;23.382;2023-01-29T12:35:30;94600.53;;;1.17;100.00
12775;BME280;6451;42.630;23.382;2023-01-29T12:38:02;94641.63;;;1.21;100.00
12775;BME280;6451;42.630;23.382;2023-01-29T12:40:33;94484.56;;;0.21;100.00
12775;BME280;6451;42.630;23.382;2023-01-29T12:43:12;94548.47;;;0.80;100.00
12775;BME280;6451;42.630;23.382;2023-01-29T12:45:43;94617.03;;;1.53;100.00
12775;BME280;6451;42.630;23.382;2023-01-29T12:48:18;94633.63;;;1.50;100.00
12775;BME280;6451;42.630;23.382;2023-01-29T12:50:46;94610.84;;;1.29;100.00
12775;BME280;6451;42.630;23.382;2023-01-29T12:53:23;94635.63;;;1.39;100.00
12775;BME280;6451;42.630;23.382;2023-01-29T12:55:53;94638.50;;;1.43;100.00
12775;BME280;6451;42.630;23.382;2023-01-29T12:58:22;94613.00;;;1.27;100.00
12775;BME280;6451;42.630;23.382;2023-01-29T13:00:56;94639.41;;;1.33;100.00
12775;BME280;6451;42.630;23.382;2023-01-29T13:03:29;94639.22;;;1.25;100.00
12775;BME280;6451;42.630;23.382;2023-01-29T13:06:04;94637.22;;;1.41;100.00
12775;BME280;6451;42.630;23.382;2023-01-29T13:08:36;94620.38;;;1.40;100.00
12775;BME280;6451;42.630;23.382;2023-01-29T13:11:07;94626.66;;;1.54;100.00
12775;BME280;6451;42.630;23.382;2023-01-29T13:13:42;94635.56;;;1.74;100.00
12775;BME280;6451;42.630;23.382;2023-01-29T13:16:19;94623.69;;;1.85;100.00
12775;BME280;6451;42.630;23.382;2023-01-29T13:18:53;94618.81;;;1.63;100.00
12775;BME280;6451;42.630;23.382;2023-01-29T13:21:25;94626.22;;;1.71;100.00
12775;BME280;6451;42.630;23.382;2023-01-29T13:23:56;94613.81;;;1.56;100.00